Time;durP1;ratioP1;P1;durP2;ratioP2;P2;SDS_P1;SDS_P2;PMS_P1;PMS_P2;Temp;Humidity;BMP_temperature;BMP_pressure;BME280_temperature;BME280_humidity;BME280_pressure;Samples;Min_cycle;Max_cycle;Signal;HPM_P1;HPM_P2
2022/06/18 00:01:53;;;;;;;4.95;2.78;;;;;;;14.39;72.29;99893.28;8455825;27;20054;-75
2022/06/18 00:05:56;;;;;;;4.82;2.95;;;;;;;14.42;72.40;99889.13;8517753;27;20492;-76
2022/06/18 00:10:01;;;;;;;5.68;2.75;;;;;;;14.39;72.60;99893.28;8509850;27;20492;-76
2022/06/18 00:14:02;;;;;;;5.28;3.03;;;;;;;14.40;72.40;99878.56;8512902;27;20043;-75
2022/06/18 00:18:10;;;;;;;6.18;3.13;;;;;;;14.42;72.88;99881.00;8514559;27;20035;-75
2022/06/18 00:22:15;;;;;;;6.45;2.78;;;;;;;14.40;72.76;99878.56;8521173;27;20047;-76
2022/06/18 00:26:16;;;;;;;9.02;2.95;;;;;;;14.40;72.41;99878.56;8502135;27;20545;-76
2022/06/18 00:30:21;;;;;;;5.28;3.55;;;;;;;14.40;72.08;99867.72;8516148;27;20142;-75
2022/06/18 00:34:22;;;;;;;10.63;3.83;;;;;;;14.46;71.87;99877.31;8511461;27;20050;-74
2022/06/18 00:38:29;;;;;;;8.15;4.28;;;;;;;14.53;71.75;99872.22;8506127;27;20492;-76
2022/06/18 00:42:31;;;;;;;7.78;4.10;;;;;;;14.56;71.78;99870.78;8488117;27;20050;-74
2022/06/18 00:46:55;;;;;;;8.27;4.60;;;;;;;14.56;71.85;99865.34;8490241;27;20416;-76
2022/06/18 00:51:01;;;;;;;12.10;4.82;;;;;;;14.62;71.57;99862.16;8509252;27;20046;-75
2022/06/18 00:55:30;;;;;;;15.07;5.68;;;;;;;14.70;71.28;99858.66;8503813;27;20123;-75
2022/06/18 00:59:40;;;;;;;17.40;6.03;;;;;;;14.78;71.10;99852.44;8517323;27;20106;-73
2022/06/18 01:03:43;;;;;;;13.27;6.00;;;;;;;14.82;71.00;99851.78;8490045;27;20047;-75
2022/06/18 01:07:48;;;;;;;12.68;4.82;;;;;;;14.78;71.21;99857.88;8514936;27;20058;-74
2022/06/18 01:11:50;;;;;;;10.75;5.82;;;;;;;14.74;71.61;99856.94;8505603;27;20052;-75
2022/06/18 01:15:52;;;;;;;12.32;6.00;;;;;;;14.74;71.62;99848.78;8488767;27;20503;-75
2022/06/18 01:19:53;;;;;;;10.43;6.15;;;;;;;14.79;71.55;99845.91;8483302;27;20111;-76
2022/06/18 01:24:13;;;;;;;12.55;6.40;;;;;;;14.85;71.67;99845.75;8441872;27;20043;-75
2022/06/18 01:28:16;;;;;;;16.20;6.30;;;;;;;14.89;71.42;99835.81;8501175;27;20067;-74
2022/06/18 01:32:18;;;;;;;9.90;5.80;;;;;;;14.96;71.54;99836.16;8504365;27;20039;-76
2022/06/18 01:36:19;;;;;;;9.70;5.93;;;;;;;15.03;71.31;99836.44;8511266;27;20823;-75
2022/06/18 01:40:26;;;;;;;13.18;6.03;;;;;;;15.12;71.36;99840.75;8504077;27;20488;-75
2022/06/18 01:44:45;;;;;;;14.60;6.30;;;;;;;15.22;71.06;99823.34;8491429;27;20089;-75
2022/06/18 01:48:46;;;;;;;;;;;;;;;15.29;70.67;99823.63;8524158;27;20043;-76
2022/06/18 01:52:53;;;;;;;14.68;8.30;;;;;;;15.34;70.68;99820.75;8505189;27;19923;-74
2022/06/18 01:57:00;;;;;;;16.98;7.97;;;;;;;15.38;70.86;99816.28;8509378;27;20047;-75
2022/06/18 02:01:02;;;;;;;14.63;8.45;;;;;;;15.42;70.82;99817.22;8501412;27;20043;-75
2022/06/18 02:05:04;;;;;;;13.23;8.00;;;;;;;15.44;71.15;99812.22;8467671;27;20064;-75
2022/06/18 02:09:08;;;;;;;21.52;9.63;;;;;;;15.45;71.27;99805.66;8503287;27;20066;-75
2022/06/18 02:13:10;;;;;;;19.08;8.52;;;;;;;15.41;71.88;99810.16;8497390;27;20043;-75
2022/06/18 02:17:17;;;;;;;15.02;8.15;;;;;;;15.43;71.83;99802.50;8506352;27;20046;-75
2022/06/18 02:21:23;;;;;;;18.25;8.82;;;;;;;15.44;71.93;99804.06;8485734;27;20045;-75
2022/06/18 02:25:27;;;;;;;21.05;8.30;;;;;;;15.46;71.99;99801.84;8502141;27;20137;-75
2022/06/18 02:29:30;;;;;;;21.05;8.82;;;;;;;15.47;72.07;99803.44;8524881;27;20050;-76
2022/06/18 02:33:40;;;;;;;17.13;9.07;;;;;;;15.47;72.35;99802.63;8523109;27;20111;-75
2022/06/18 02:37:42;;;;;;;19.13;8.88;;;;;;;15.50;72.34;99813.66;8463511;27;20442;-75
2022/06/18 02:41:43;;;;;;;21.02;9.32;;;;;;;15.52;72.41;99808.75;8520562;27;20091;-75
2022/06/18 02:45:47;;;;;;;16.27;8.10;;;;;;;15.55;72.29;99816.25;8505537;27;20400;-75
2022/06/18 02:49:56;;;;;;;13.95;7.43;;;;;;;15.58;71.69;99810.16;8506988;27;20457;-75
2022/06/18 02:53:57;;;;;;;;;;;;;;;15.60;72.20;99813.34;8506765;27;20450;-75
2022/06/18 02:58:13;;;;;;;23.23;11.18;;;;;;;15.61;71.83;99808.69;8520086;27;20017;-75
2022/06/18 03:02:14;;;;;;;27.27;11.20;;;;;;;15.60;72.45;99802.47;8516778;27;20046;-75
2022/06/18 03:06:17;;;;;;;16.95;9.35;;;;;;;15.66;72.34;99805.00;8517854;27;20133;-75
2022/06/18 03:14:37;;;;;;;14.13;6.78;;;;;;;15.76;71.54;99804.66;8514704;27;20054;-75
2022/06/18 03:18:40;;;;;;;18.10;6.97;;;;;;;15.82;71.33;99809.59;8469276;27;20065;-75
2022/06/18 03:22:41;;;;;;;16.45;6.38;;;;;;;15.88;71.30;99804.78;8471364;27;20491;-75
2022/06/18 03:26:42;;;;;;;15.82;6.63;;;;;;;15.91;71.36;99796.75;8522099;27;20054;-74
2022/06/18 03:30:43;;;;;;;11.13;5.80;;;;;;;15.95;71.26;99802.34;8513442;27;20045;-76
2022/06/18 03:34:44;;;;;;;9.45;5.78;;;;;;;16.00;71.30;99799.44;8523648;27;20055;-75
2022/06/18 03:38:45;;;;;;;10.82;5.63;;;;;;;16.07;71.25;99799.72;8523859;27;20486;-76
2022/06/18 03:42:46;;;;;;;15.68;5.88;;;;;;;16.12;70.77;99805.00;8530374;27;20054;-74
2022/06/18 03:46:47;;;;;;;17.58;6.05;;;;;;;16.21;70.08;99804.94;8529300;27;20035;-76
2022/06/18 03:50:49;;;;;;;12.70;5.60;;;;;;;16.28;69.87;99811.50;8480001;27;20038;-76
2022/06/18 03:54:50;;;;;;;11.80;5.22;;;;;;;16.33;69.67;99803.13;8509129;27;20064;-75
2022/06/18 03:58:51;;;;;;;11.20;4.85;;;;;;;16.40;69.63;99803.38;8520843;27;20054;-75
2022/06/18 04:02:52;;;;;;;11.25;5.22;;;;;;;16.41;69.83;99799.53;8513199;27;20535;-76
2022/06/18 04:06:53;;;;;;;11.82;5.25;;;;;;;16.48;69.90;99802.53;8527597;27;20047;-76
2022/06/18 04:10:54;;;;;;;16.95;5.53;;;;;;;16.55;69.78;99798.50;8508206;27;20129;-74
2022/06/18 04:14:55;;;;;;;15.40;5.10;;;;;;;16.65;69.14;99798.13;8517904;27;20041;-75
2022/06/18 04:18:56;;;;;;;10.75;5.13;;;;;;;16.71;68.82;99802.22;8519716;27;20509;-75
2022/06/18 04:22:58;;;;;;;8.52;5.22;;;;;;;16.70;69.47;99796.00;8516547;27;20492;-77
2022/06/18 04:26:59;;;;;;;9.18;4.72;;;;;;;16.78;69.36;99797.06;8512687;27;20051;-75
2022/06/18 04:31:01;;;;;;;11.52;4.75;;;;;;;16.85;69.11;99783.69;8499126;27;20041;-76
2022/06/18 04:35:07;;;;;;;9.55;4.20;;;;;;;16.94;68.69;99784.41;8512446;27;20129;-75
2022/06/18 04:39:09;;;;;;;7.00;4.05;;;;;;;17.12;67.19;99774.94;8517002;27;20145;-76
2022/06/18 04:43:10;;;;;;;6.60;3.88;;;;;;;17.34;66.36;99772.97;8507662;27;21881;-76
2022/06/18 04:47:11;;;;;;;6.47;3.75;;;;;;;17.46;65.68;99783.91;8512880;27;20058;-75
2022/06/18 04:51:12;;;;;;;11.57;4.53;;;;;;;17.58;65.80;99782.00;8515648;27;20047;-76
2022/06/18 04:55:13;;;;;;;6.85;3.60;;;;;;;17.65;65.21;99778.75;8523575;27;20073;-76
2022/06/18 04:59:15;;;;;;;7.60;3.42;;;;;;;17.75;64.98;99781.03;8511543;27;20549;-75
2022/06/18 05:03:18;;;;;;;9.68;3.90;;;;;;;17.80;64.88;99782.75;8508197;27;20043;-76
2022/06/18 05:07:18;;;;;;;8.27;3.60;;;;;;;17.83;64.83;99777.41;8501382;27;20043;-75
2022/06/18 05:11:20;;;;;;;10.70;3.55;;;;;;;17.93;64.70;99776.94;8501976;27;20346;-75
2022/06/18 05:15:21;;;;;;;6.93;3.58;;;;;;;18.07;64.35;99771.94;8504630;27;20051;-76
2022/06/18 05:19:25;;;;;;;5.95;3.50;;;;;;;18.18;64.00;99771.50;8506425;27;20429;-75
2022/06/18 05:23:27;;;;;;;7.57;3.53;;;;;;;18.28;64.25;99762.81;8509300;27;20043;-74
2022/06/18 05:27:31;;;;;;;10.10;3.55;;;;;;;18.38;63.66;99765.88;8508696;27;20115;-76
2022/06/18 05:31:32;;;;;;;8.15;3.80;;;;;;;18.49;63.59;99766.22;8511324;27;20053;-76
2022/06/18 05:35:35;;;;;;;8.63;4.68;;;;;;;18.49;63.38;99766.22;8520773;27;20034;-75
2022/06/18 05:39:36;;;;;;;7.18;3.60;;;;;;;18.49;63.20;99755.28;8508188;27;20456;-77
2022/06/18 05:43:37;;;;;;;8.55;3.72;;;;;;;18.48;63.40;99753.66;8500900;27;20129;-76
2022/06/18 05:47:38;;;;;;;7.32;3.60;;;;;;;18.48;63.40;99759.13;8496791;27;20047;-75
2022/06/18 05:51:39;;;;;;;6.53;3.90;;;;;;;18.54;63.33;99747.66;8456926;27;20126;-77
2022/06/18 05:55:40;;;;;;;9.80;4.18;;;;;;;18.59;63.70;99765.75;8482984;27;20103;-76
2022/06/18 05:59:41;;;;;;;8.10;3.60;;;;;;;18.55;64.43;99759.38;8509470;27;20092;-77
2022/06/18 06:03:42;;;;;;;5.70;3.90;;;;;;;18.60;64.67;99761.09;8504874;27;20050;-76
2022/06/18 06:07:49;;;;;;;10.25;3.83;;;;;;;18.73;63.65;99760.69;8515514;27;20043;-76
2022/06/18 06:11:50;;;;;;;6.63;4.00;;;;;;;18.88;63.38;99757.22;8508566;27;20045;-76
2022/06/18 06:15:52;;;;;;;10.18;4.00;;;;;;;18.97;63.77;99755.16;8518612;27;20120;-75
2022/06/18 06:20:00;;;;;;;8.85;3.85;;;;;;;19.03;64.38;99752.16;8504444;27;20054;-76
2022/06/18 06:24:02;;;;;;;8.40;3.95;;;;;;;19.02;64.57;99742.34;8507823;27;20122;-75
2022/06/18 06:28:03;;;;;;;7.10;4.05;;;;;;;19.04;64.59;99742.78;8514533;27;20050;-75
2022/06/18 06:32:05;;;;;;;6.43;3.47;;;;;;;19.02;64.97;99734.94;8444261;27;20382;-76
2022/06/18 06:36:06;;;;;;;13.48;3.83;;;;;;;19.10;64.85;99730.44;8501736;27;20127;-75
2022/06/18 06:40:08;;;;;;;7.80;3.60;;;;;;;19.22;64.81;99722.16;8501016;27;20051;-77
2022/06/18 06:44:09;;;;;;;9.27;3.75;;;;;;;19.28;64.77;99715.28;8469133;27;20046;-77
2022/06/18 06:48:11;;;;;;;12.43;4.57;;;;;;;19.43;64.16;99711.75;8482461;27;20039;-76
2022/06/18 06:52:12;;;;;;;9.60;4.65;;;;;;;19.71;64.22;99707.03;8464668;27;20386;-76
2022/06/18 07:00:39;;;;;;;9.82;4.10;;;;;;;20.18;62.49;99715.19;8464031;27;20045;-75
2022/06/18 07:04:40;;;;;;;8.68;4.03;;;;;;;20.38;62.67;99702.31;8501385;27;20054;-75
2022/06/18 07:08:41;;;;;;;9.05;3.67;;;;;;;20.59;62.52;99708.25;8492701;27;20489;-74
2022/06/18 07:12:43;;;;;;;11.88;3.38;;;;;;;20.79;62.13;99702.75;8508781;27;20050;-75
2022/06/18 07:16:51;;;;;;;6.47;2.92;;;;;;;20.97;61.77;99695.66;8476217;27;20075;-74
2022/06/18 07:20:52;;;;;;;;;;;;;;;21.09;61.43;99684.53;8504428;27;20043;-74
2022/06/18 07:24:54;;;;;;;5.18;2.55;;;;;;;21.16;60.43;99687.41;8505998;27;19923;-75
2022/06/18 07:28:55;;;;;;;4.72;2.53;;;;;;;21.16;59.47;99687.41;8515958;27;20059;-75
2022/06/18 07:32:56;;;;;;;6.47;2.60;;;;;;;21.23;59.77;99687.53;8511842;27;20046;-74
2022/06/18 07:36:57;;;;;;;5.75;2.60;;;;;;;21.45;59.67;99689.50;8508937;27;20069;-74
2022/06/18 07:40:58;;;;;;;7.85;2.65;;;;;;;21.75;59.27;99691.53;8502749;27;20083;-76
2022/06/18 07:44:59;;;;;;;8.82;2.80;;;;;;;21.99;59.13;99691.19;8488027;27;20045;-77
2022/06/18 07:49:00;;;;;;;9.25;2.58;;;;;;;22.05;57.70;99689.66;8471016;27;20055;-75
2022/06/18 07:53:01;;;;;;;7.97;2.60;;;;;;;22.06;57.43;99685.75;8507865;27;20047;-75
2022/06/18 07:57:02;;;;;;;13.57;2.60;;;;;;;21.97;57.50;99688.00;8507533;27;20097;-75
2022/06/18 08:01:03;;;;;;;4.85;2.17;;;;;;;22.04;56.82;99695.56;8511402;27;20047;-74
2022/06/18 08:05:05;;;;;;;5.22;2.15;;;;;;;22.28;55.27;99698.66;8508682;27;20047;-74
2022/06/18 08:09:06;;;;;;;4.55;2.30;;;;;;;22.29;54.89;99694.75;8517173;27;20034;-74
2022/06/18 08:13:08;;;;;;;5.10;2.00;;;;;;;22.23;54.77;99685.22;8508143;27;20480;-74
2022/06/18 08:17:09;;;;;;;4.05;2.15;;;;;;;22.43;54.86;99682.31;8508261;27;20054;-74
2022/06/18 08:21:21;;;;;;;3.42;2.10;;;;;;;22.66;53.41;99680.25;8511569;27;20069;-75
2022/06/18 08:25:24;;;;;;;4.45;2.00;;;;;;;22.86;54.00;99673.44;8514153;27;20047;-76
2022/06/18 08:29:25;;;;;;;3.72;2.15;;;;;;;22.98;53.73;99659.41;8485013;27;20548;-76
2022/06/18 08:33:28;;;;;;;5.63;2.25;;;;;;;22.98;53.67;99658.63;8513668;27;20109;-74
2022/06/18 08:37:29;;;;;;;4.57;1.90;;;;;;;23.14;54.42;99646.19;8501431;27;20047;-75
2022/06/18 08:41:39;;;;;;;7.18;2.22;;;;;;;23.47;52.60;99641.78;8504932;27;20472;-76
2022/06/18 08:45:47;;;;;;;3.38;1.48;;;;;;;23.69;48.81;99640.75;8517452;27;20046;-75
2022/06/18 08:49:53;;;;;;;;;;;;;;;23.89;49.52;99636.56;8429983;28;20055;-77
2022/06/18 08:54:12;;;;;;;6.13;1.70;;;;;;;23.86;44.37;99626.28;8433803;28;19920;-75
2022/06/18 08:58:28;;;;;;;2.40;1.23;;;;;;;24.06;43.74;99623.25;8432406;28;20064;-74
2022/06/18 09:02:40;;;;;;;4.65;1.48;;;;;;;24.20;43.60;99623.34;8434195;28;20050;-75
2022/06/18 09:07:11;;;;;;;4.57;1.20;;;;;;;24.35;44.38;99619.47;8433040;28;20071;-75
2022/06/18 09:11:16;;;;;;;6.15;1.50;;;;;;;24.48;43.72;99612.41;8440694;28;20044;-74
2022/06/18 09:15:26;;;;;;;7.40;1.77;;;;;;;24.60;42.51;99606.53;8415299;28;20039;-75
2022/06/18 09:19:28;;;;;;;3.08;1.20;;;;;;;24.82;40.22;99610.94;8465389;27;20054;-75
2022/06/18 09:23:31;;;;;;;1.63;1.10;;;;;;;25.01;39.42;99609.03;8456378;27;20402;-74
2022/06/18 09:27:44;;;;;;;2.85;1.20;;;;;;;25.14;39.11;99599.94;8479845;27;20138;-74
2022/06/18 09:31:48;;;;;;;8.48;1.30;;;;;;;25.25;40.26;99594.41;8505240;27;20088;-75
2022/06/18 09:35:53;;;;;;;2.47;0.90;;;;;;;25.41;39.32;99592.03;8517691;27;20046;-76
2022/06/18 09:39:58;;;;;;;2.88;1.10;;;;;;;25.50;39.14;99586.09;8503078;27;20496;-75
2022/06/18 09:44:40;;;;;;;10.45;1.55;;;;;;;25.53;39.26;99585.31;8514618;27;20043;-75
2022/06/18 09:48:42;;;;;;;3.00;1.10;;;;;;;25.69;38.69;99584.94;8364555;28;20176;-75
2022/06/18 09:52:48;;;;;;;3.65;1.20;;;;;;;25.77;39.13;99564.34;8381390;28;20155;-75
2022/06/18 09:56:57;;;;;;;10.05;1.27;;;;;;;25.90;37.79;99568.28;8354252;28;20422;-78
2022/06/18 10:00:58;;;;;;;1.48;1.00;;;;;;;26.06;36.74;99571.38;8378466;28;20059;-78
2022/06/18 10:09:28;;;;;;;3.13;1.27;;;;;;;26.27;36.46;99565.78;8367699;28;20049;-75
2022/06/18 10:13:30;;;;;;;4.40;1.17;;;;;;;26.31;36.16;99555.47;8377950;28;20048;-77
2022/06/18 10:17:31;;;;;;;1.85;0.95;;;;;;;26.42;35.95;99545.13;8374900;28;20218;-75
2022/06/18 10:21:43;;;;;;;2.45;1.02;;;;;;;26.61;35.43;99534.72;8370303;28;20048;-77
2022/06/18 10:25:59;;;;;;;2.75;1.05;;;;;;;26.68;35.29;99545.75;8485736;27;20055;-77
2022/06/18 10:30:08;;;;;;;5.07;1.00;;;;;;;26.89;36.58;99534.56;8484971;27;20043;-76
2022/06/18 10:34:16;;;;;;;7.25;1.38;;;;;;;26.96;35.01;99533.72;8443892;27;20103;-76
2022/06/18 10:38:35;;;;;;;2.45;1.30;;;;;;;27.04;35.24;99516.59;8467099;27;20108;-76
2022/06/18 10:42:55;;;;;;;2.17;1.05;;;;;;;27.15;35.60;99517.31;8521905;27;20043;-77
2022/06/18 10:47:17;;;;;;;4.60;1.00;;;;;;;27.29;35.47;99503.28;8497062;27;20036;-76
2022/06/18 10:51:22;;;;;;;3.75;0.90;;;;;;;27.40;35.04;99507.94;8452399;27;20054;-77
2022/06/18 10:55:23;;;;;;;3.88;1.15;;;;;;;27.44;35.06;99492.06;8497236;27;20051;-77
2022/06/18 10:59:38;;;;;;;8.05;1.20;;;;;;;27.62;35.42;99498.22;8482688;27;20043;-77
2022/06/18 11:03:39;;;;;;;7.55;1.20;;;;;;;27.71;34.90;99490.19;8519630;27;20472;-77
2022/06/18 11:07:46;;;;;;;3.80;1.40;;;;;;;27.77;34.43;99488.53;8461466;27;20108;-77
2022/06/18 11:11:57;;;;;;;4.53;1.20;;;;;;;27.82;33.87;99485.28;8507945;27;20043;-76
2022/06/18 11:16:16;;;;;;;3.15;1.10;;;;;;;27.82;33.92;99485.28;8509815;27;20043;-75
2022/06/18 11:20:17;;;;;;;4.72;1.55;;;;;;;28.03;33.86;99467.56;8502249;27;20488;-76
2022/06/18 11:24:34;;;;;;;2.70;1.33;;;;;;;28.19;34.12;99469.78;8502722;27;20091;-77
2022/06/18 11:28:41;;;;;;;3.97;1.20;;;;;;;28.17;33.98;99461.09;8486374;27;20409;-77
2022/06/18 11:33:05;;;;;;;1.95;1.10;;;;;;;28.34;34.44;99448.94;8458338;27;20126;-76
2022/06/18 11:37:26;;;;;;;1.10;1.00;;;;;;;28.54;33.34;99455.38;8395961;28;20462;-77
2022/06/18 11:41:40;;;;;;;6.63;1.20;;;;;;;28.48;32.69;99451.50;8369258;28;20041;-76
2022/06/18 11:45:51;;;;;;;5.50;1.13;;;;;;;28.59;33.56;99438.22;8358262;28;20422;-77
2022/06/18 11:50:00;;;;;;;2.83;1.17;;;;;;;28.71;32.77;99429.25;8387931;28;20041;-76
2022/06/18 11:54:24;;;;;;;2.90;1.00;;;;;;;28.74;31.14;99427.69;8397670;28;20040;-76
2022/06/18 11:58:50;;;;;;;2.00;1.10;;;;;;;28.85;32.69;99429.06;8405159;28;20486;-77
2022/06/18 12:02:57;;;;;;;10.27;1.10;;;;;;;28.94;32.27;99426.50;8415420;28;20093;-76
2022/06/18 12:07:09;;;;;;;6.70;1.40;;;;;;;29.08;32.49;99413.56;8464287;27;20054;-77
2022/06/18 12:11:14;;;;;;;1.60;1.00;;;;;;;29.20;31.35;99404.59;8470001;27;20039;-76
2022/06/18 12:15:28;;;;;;;5.15;1.50;;;;;;;29.13;31.07;99410.31;8491151;27;20129;-75
2022/06/18 12:19:49;;;;;;;3.03;1.10;;;;;;;29.14;30.81;99406.28;8528443;27;20045;-77
2022/06/18 12:23:54;;;;;;;4.45;1.10;;;;;;;29.36;31.27;99399.13;8350236;28;20095;-76
2022/06/18 12:28:28;;;;;;;2.97;1.20;;;;;;;29.37;30.59;99392.34;8347909;28;20442;-76
2022/06/18 12:32:41;;;;;;;3.38;1.00;;;;;;;29.55;31.29;99392.78;8294499;28;20058;-76
2022/06/18 12:36:58;;;;;;;2.92;0.98;;;;;;;29.71;31.79;99401.19;8294484;28;20041;-76
2022/06/18 12:41:17;;;;;;;4.50;1.15;;;;;;;29.86;30.97;99373.03;8260371;28;20489;-77
2022/06/18 12:45:28;;;;;;;1.80;0.90;;;;;;;29.84;30.73;99375.44;8292655;28;20153;-77
2022/06/18 12:49:36;;;;;;;4.95;1.20;;;;;;;29.99;30.46;99379.50;8296304;28;20189;-77
2022/06/18 12:54:06;;;;;;;3.90;1.05;;;;;;;30.03;30.39;99371.88;8295097;28;20530;-75
2022/06/18 12:58:37;;;;;;;3.10;1.20;;;;;;;30.01;30.46;99368.72;8274087;28;20079;-77
2022/06/18 13:02:44;;;;;;;4.78;1.13;;;;;;;30.00;30.27;99356.03;8418388;28;20067;-77
2022/06/18 13:07:21;;;;;;;3.33;1.50;;;;;;;30.06;30.59;99354.28;8428536;27;20055;-77
2022/06/18 13:11:57;;;;;;;5.28;1.30;;;;;;;30.19;30.84;99352.41;8348621;28;20568;-77
2022/06/18 13:16:15;;;;;;;7.03;1.17;;;;;;;30.18;30.18;99350.81;8252046;28;20053;-78
2022/06/18 13:20:29;;;;;;;4.10;1.20;;;;;;;30.21;30.72;99333.22;8251630;28;20084;-75
2022/06/18 13:29:28;;;;;;;2.08;1.30;;;;;;;30.65;30.93;99328.16;8241256;28;20058;-76
2022/06/18 13:33:47;;;;;;;3.72;1.25;;;;;;;30.51;29.37;99324.50;8104489;29;20044;-77
2022/06/18 13:37:57;;;;;;;2.30;1.10;;;;;;;31.19;29.56;99323.50;8106474;29;20047;-76
2022/06/18 13:42:09;;;;;;;4.50;1.40;;;;;;;32.77;27.57;99304.88;8113051;29;20044;-76
2022/06/18 13:46:46;;;;;;;3.83;1.13;;;;;;;34.06;26.60;99304.38;8143826;28;20050;-76
2022/06/18 13:50:49;;;;;;;8.30;1.30;;;;;;;34.95;24.59;99296.53;8200551;28;20062;-76
2022/06/18 13:54:52;;;;;;;3.92;1.30;;;;;;;35.51;23.60;99290.38;8197355;28;20055;-76
2022/06/18 13:58:57;;;;;;;6.35;1.50;;;;;;;36.02;23.06;99283.13;8211868;28;20055;-77
2022/06/18 14:03:08;;;;;;;2.95;1.40;;;;;;;36.61;22.49;99296.16;8187000;28;20051;-76
2022/06/18 14:07:14;;;;;;;1.60;1.20;;;;;;;37.00;22.14;99282.88;8182135;28;20098;-77
2022/06/18 14:11:31;;;;;;;4.43;1.23;;;;;;;37.69;21.10;99287.16;8389358;28;20201;-77
2022/06/18 14:15:32;;;;;;;3.25;1.25;;;;;;;38.04;21.20;99285.13;8370612;28;20047;-76
2022/06/18 14:19:57;;;;;;;6.47;1.10;;;;;;;38.80;20.65;99277.38;8389223;28;20068;-77
2022/06/18 14:23:58;;;;;;;5.80;1.30;;;;;;;39.01;20.22;99280.16;8336173;28;20084;-78
2022/06/18 14:27:59;;;;;;;8.45;1.40;;;;;;;39.67;19.99;99263.78;8384716;28;20142;-78
2022/06/18 14:32:13;;;;;;;3.75;1.25;;;;;;;39.95;19.82;99254.72;8405648;28;20105;-78
2022/06/18 14:36:20;;;;;;;3.53;1.05;;;;;;;40.63;18.58;99262.25;8405522;28;20399;-78
2022/06/18 14:40:31;;;;;;;1.90;1.27;;;;;;;40.42;18.92;99265.25;8422694;28;20142;-78
2022/06/18 14:44:45;;;;;;;13.93;1.50;;;;;;;40.56;18.85;99251.41;8414311;28;20052;-79
2022/06/18 14:49:03;;;;;;;2.03;1.00;;;;;;;40.32;19.36;99249.78;8399230;28;20048;-78
2022/06/18 14:53:41;;;;;;;2.60;1.23;;;;;;;40.60;18.92;99246.28;8417986;28;20070;-78
2022/06/18 14:58:21;;;;;;;2.60;1.40;;;;;;;41.11;18.87;99240.22;8418966;28;20555;-78
2022/06/18 15:02:49;;;;;;;3.17;1.30;;;;;;;41.50;18.20;99230.97;8387232;28;20063;-80
2022/06/18 15:06:50;;;;;;;6.00;1.40;;;;;;;40.80;19.56;99226.25;8386656;28;20198;-78
2022/06/18 15:10:56;;;;;;;4.38;1.73;;;;;;;39.48;19.88;99228.72;8354764;28;20083;-79
2022/06/18 15:14:59;;;;;;;6.78;1.38;;;;;;;39.08;20.88;99211.94;8387560;28;20048;-77
2022/06/18 15:23:11;;;;;;;;;;;;;;;39.09;20.23;99214.25;8368759;28;20062;-78
2022/06/18 15:27:13;;;;;;;6.63;1.13;;;;;;;39.14;20.53;99215.56;8387237;28;19920;-78
2022/06/18 15:31:32;;;;;;;6.85;1.83;;;;;;;38.73;21.10;99198.78;8391853;28;20541;-78
2022/06/18 15:35:33;;;;;;;6.60;1.50;;;;;;;39.74;20.54;99199.56;8392427;28;20036;-76
2022/06/18 15:39:56;;;;;;;3.78;1.60;;;;;;;39.77;20.47;99192.94;8484470;27;20043;-75
2022/06/18 15:43:58;;;;;;;4.10;1.30;;;;;;;38.68;20.94;99179.72;8517002;27;20075;-78
2022/06/18 15:48:00;;;;;;;6.85;1.50;;;;;;;37.75;21.86;99178.13;8504060;27;20031;-78
2022/06/18 15:52:03;;;;;;;4.22;1.50;;;;;;;36.53;23.53;99187.31;8492339;27;20464;-76
2022/06/18 15:56:10;;;;;;;4.05;1.35;;;;;;;36.33;23.88;99174.66;8487474;27;20477;-75
2022/06/18 16:00:18;;;;;;;;;;;;;;;35.45;24.69;99174.31;8468730;27;20091;-75
2022/06/18 16:04:19;;;;;;;;;;;;;;;35.05;25.26;99168.22;8513260;27;20385;-75
2022/06/18 16:08:31;;;;;;;2.60;1.60;;;;;;;34.53;24.85;99172.97;8499232;27;19964;-76
2022/06/18 16:12:38;;;;;;;5.53;1.52;;;;;;;34.31;25.77;99183.63;8521232;27;20429;-74
2022/06/18 16:16:49;;;;;;;6.73;2.00;;;;;;;34.01;24.83;99176.09;8511712;27;20055;-75
2022/06/18 16:21:05;;;;;;;6.35;2.10;;;;;;;33.87;25.07;99172.66;8524373;27;20051;-76
2022/06/18 16:25:17;;;;;;;8.40;2.00;;;;;;;33.43;25.60;99176.88;8498277;27;20042;-75
2022/06/18 16:29:22;;;;;;;6.53;2.17;;;;;;;33.13;27.08;99180.47;8490959;27;20080;-75
2022/06/18 16:33:33;;;;;;;7.43;1.65;;;;;;;33.65;26.96;99174.75;8512661;27;20043;-75
2022/06/18 16:37:34;;;;;;;4.47;1.42;;;;;;;33.37;26.49;99167.53;8505728;27;20046;-75
2022/06/18 16:41:42;;;;;;;12.02;2.00;;;;;;;32.93;27.43;99167.63;8523104;27;20446;-75
2022/06/18 16:45:43;;;;;;;4.80;1.92;;;;;;;33.17;27.37;99165.13;8521187;27;20487;-74
2022/06/18 16:49:56;;;;;;;11.25;2.30;;;;;;;34.45;25.37;99154.94;8529491;27;20043;-75
2022/06/18 16:54:00;;;;;;;8.68;3.25;;;;;;;34.81;25.31;99164.53;8524066;27;20043;-75
2022/06/18 16:58:02;;;;;;;9.93;2.38;;;;;;;33.88;26.13;99157.41;8489109;27;20046;-75
2022/06/18 17:02:03;;;;;;;6.43;2.55;;;;;;;32.73;27.69;99164.41;8489405;27;20091;-76
2022/06/18 17:06:06;;;;;;;7.88;2.50;;;;;;;32.04;29.12;99153.31;8506031;27;20051;-75
2022/06/18 17:10:29;;;;;;;5.85;1.90;;;;;;;31.52;29.75;99162.19;8525882;27;20041;-76
2022/06/18 17:14:31;;;;;;;7.15;2.17;;;;;;;31.15;30.02;99161.00;8527129;27;20460;-76
2022/06/18 17:18:32;;;;;;;12.15;1.98;;;;;;;30.87;30.93;99156.28;8521365;27;20039;-76
2022/06/18 17:22:33;;;;;;;3.78;1.95;;;;;;;30.69;31.88;99150.44;8514939;27;20035;-75
2022/06/18 17:31:14;;;;;;;7.43;1.88;;;;;;;30.30;32.77;99146.75;8509602;27;20050;-74
2022/06/18 17:35:15;;;;;;;3.97;1.70;;;;;;;30.16;33.35;99130.44;8505527;27;20042;-74
2022/06/18 17:39:16;;;;;;;5.40;1.85;;;;;;;30.00;33.89;99138.81;8507885;27;20145;-74
2022/06/18 17:43:19;;;;;;;13.68;1.90;;;;;;;29.80;33.59;99139.72;8523784;27;20078;-73
2022/06/18 17:47:21;;;;;;;7.43;1.80;;;;;;;29.72;34.40;99135.53;8519139;27;20073;-73
2022/06/18 17:51:22;;;;;;;11.55;3.13;;;;;;;29.61;34.69;99143.38;8510746;27;20127;-74
2022/06/18 17:55:24;;;;;;;7.93;1.80;;;;;;;29.44;34.79;99136.28;8507569;27;20086;-74
2022/06/18 17:59:24;;;;;;;7.25;2.40;;;;;;;29.21;35.81;99131.63;8510774;27;20046;-74
2022/06/18 18:03:28;;;;;;;8.02;3.35;;;;;;;28.95;37.44;99127.84;8496187;27;20055;-74
2022/06/18 18:07:29;;;;;;;33.65;15.57;;;;;;;28.81;37.81;99122.63;8507914;27;20071;-73
2022/06/18 18:11:51;;;;;;;41.20;15.25;;;;;;;28.66;38.50;99126.88;8452894;27;20055;-73
2022/06/18 18:15:51;;;;;;;23.10;9.82;;;;;;;28.49;39.87;99122.47;8341263;28;20047;-73
2022/06/18 18:19:52;;;;;;;22.33;9.88;;;;;;;28.32;40.51;99131.94;8378971;28;20040;-74
2022/06/18 18:23:53;;;;;;;28.70;15.25;;;;;;;28.14;41.56;99130.31;8369274;28;20068;-73
2022/06/18 18:27:55;;;;;;;13.48;3.85;;;;;;;27.80;42.33;99138.06;8377860;28;20053;-73
2022/06/18 18:32:03;;;;;;;6.32;3.60;;;;;;;27.54;42.72;99119.50;8372276;28;20119;-75
2022/06/18 18:36:05;;;;;;;11.88;3.42;;;;;;;27.44;42.73;99125.97;8365565;28;20470;-74
2022/06/18 18:40:06;;;;;;;9.15;3.17;;;;;;;27.37;42.61;99132.41;8383091;28;20071;-76
2022/06/18 18:44:08;;;;;;;7.78;3.78;;;;;;;27.24;43.01;99134.19;8379940;28;20049;-75
2022/06/18 18:48:10;;;;;;;8.05;3.97;;;;;;;27.08;43.10;99143.16;8380000;28;20076;-76
2022/06/18 18:52:11;;;;;;;6.25;3.13;;;;;;;27.00;42.96;99141.69;8404328;27;20038;-76
2022/06/18 18:56:14;;;;;;;9.38;3.72;;;;;;;26.93;43.18;99136.25;8500708;27;20051;-75
2022/06/18 19:00:16;;;;;;;8.30;2.60;;;;;;;26.80;43.23;99126.91;8503063;27;20058;-76
2022/06/18 19:04:18;;;;;;;7.47;2.97;;;;;;;26.60;44.09;99139.81;8516120;27;20054;-75
2022/06/18 19:08:19;;;;;;;9.18;3.83;;;;;;;26.40;44.30;99143.22;8474001;27;20042;-75
2022/06/18 19:16:39;;;;;;;7.95;3.33;;;;;;;26.05;44.68;99160.22;8488686;27;20047;-76
2022/06/18 19:20:41;;;;;;;12.77;4.28;;;;;;;25.96;44.87;99152.38;8499169;27;20744;-75
2022/06/18 19:24:42;;;;;;;18.88;5.00;;;;;;;25.85;45.19;99167.53;8503053;27;20768;-76
2022/06/18 19:28:56;;;;;;;9.90;4.45;;;;;;;25.72;45.77;99171.97;8518450;27;20075;-77
2022/06/18 19:32:57;;;;;;;12.48;4.10;;;;;;;25.59;46.40;99161.41;8509865;27;20119;-76
2022/06/18 19:37:00;;;;;;;15.02;5.35;;;;;;;25.32;46.92;99157.66;8464170;27;20063;-76
2022/06/18 19:41:01;;;;;;;12.00;5.32;;;;;;;25.20;47.28;99160.91;8454483;27;20500;-76
2022/06/18 19:45:04;;;;;;;13.25;5.43;;;;;;;25.14;47.40;99157.00;8494994;27;20557;-77
2022/06/18 19:49:05;;;;;;;7.80;4.68;;;;;;;24.93;47.94;99152.38;8502115;27;20095;-75